sensor_id;sensor_type;location;lat;lon;timestamp;pressure;altitude;pressure_sealevel;temperature;humidity
7524;BME280;3803;51.666;7.630;2023-12-20T00:00:01;100790.63;;;11.72;60.64
7524;BME280;3803;51.666;7.630;2023-12-20T00:00:21;100794.22;;;11.75;60.76
7524;BME280;3803;51.666;7.630;2023-12-20T00:00:44;100789.69;;;11.68;60.84
7524;BME280;3803;51.666;7.630;2023-12-20T00:01:05;100789.72;;;11.70;60.87
7524;BME280;3803;51.666;7.630;2023-12-20T00:01:26;100797.78;;;11.77;60.80
7524;BME280;3803;51.666;7.630;2023-12-20T00:01:47;100784.50;;;11.70;60.83
7524;BME280;3803;51.666;7.630;2023-12-20T00:02:07;100801.28;;;11.79;60.92
7524;BME280;3803;51.666;7.630;2023-12-20T00:02:28;100791.59;;;11.75;60.92
7524;BME280;3803;51.666;7.630;2023-12-20T00:02:49;100784.59;;;11.74;60.44
7524;BME280;3803;51.666;7.630;2023-12-20T00:03:10;100782.69;;;11.67;60.74
7524;BME280;3803;51.666;7.630;2023-12-20T00:03:32;100792.38;;;11.71;60.42
7524;BME280;3803;51.666;7.630;2023-12-20T00:03:52;100802.06;;;11.75;60.78
7524;BME280;3803;51.666;7.630;2023-12-20T00:04:13;100794.97;;;11.70;60.73
7524;BME280;3803;51.666;7.630;2023-12-20T00:04:34;100782.59;;;11.64;60.51
7524;BME280;3803;51.666;7.630;2023-12-20T00:04:54;100795.75;;;11.67;60.79
7524;BME280;3803;51.666;7.630;2023-12-20T00:05:15;100792.22;;;11.65;60.67
7524;BME280;3803;51.666;7.630;2023-12-20T00:05:36;100796.72;;;11.69;60.61
7524;BME280;3803;51.666;7.630;2023-12-20T00:05:58;100777.31;;;11.61;60.70
7524;BME280;3803;51.666;7.630;2023-12-20T00:06:19;100793.25;;;11.72;60.71
7524;BME280;3803;51.666;7.630;2023-12-20T00:06:40;100796.72;;;11.71;60.30
7524;BME280;3803;51.666;7.630;2023-12-20T00:07:01;100776.38;;;11.59;60.36
7524;BME280;3803;51.666;7.630;2023-12-20T00:07:24;100781.78;;;11.65;60.79
7524;BME280;3803;51.666;7.630;2023-12-20T00:07:45;100787.06;;;11.67;60.51
7524;BME280;3803;51.666;7.630;2023-12-20T00:08:09;100779.94;;;11.61;60.56
7524;BME280;3803;51.666;7.630;2023-12-20T00:08:30;100790.38;;;11.61;60.41
7524;BME280;3803;51.666;7.630;2023-12-20T00:08:50;100794.00;;;11.66;60.50
7524;BME280;3803;51.666;7.630;2023-12-20T00:09:11;100799.13;;;11.63;60.51
7524;BME280;3803;51.666;7.630;2023-12-20T00:09:32;100782.34;;;11.53;60.59
7524;BME280;3803;51.666;7.630;2023-12-20T00:09:53;100769.16;;;11.48;60.67
7524;BME280;3803;51.666;7.630;2023-12-20T00:10:16;100778.81;;;11.51;60.57
7524;BME280;3803;51.666;7.630;2023-12-20T00:10:37;100780.41;;;11.46;60.84
7524;BME280;3803;51.666;7.630;2023-12-20T00:10:57;100791.06;;;11.54;60.57
7524;BME280;3803;51.666;7.630;2023-12-20T00:11:18;100781.38;;;11.49;60.81
7524;BME280;3803;51.666;7.630;2023-12-20T00:11:39;100792.00;;;11.56;60.76
7524;BME280;3803;51.666;7.630;2023-12-20T00:12:02;100798.13;;;11.58;60.72
7524;BME280;3803;51.666;7.630;2023-12-20T00:12:23;100797.28;;;11.59;60.71
7524;BME280;3803;51.666;7.630;2023-12-20T00:12:44;100789.47;;;11.60;60.47
7524;BME280;3803;51.666;7.630;2023-12-20T00:13:07;100785.75;;;11.49;60.58
7524;BME280;3803;51.666;7.630;2023-12-20T00:13:28;100778.69;;;11.46;60.67
7524;BME280;3803;51.666;7.630;2023-12-20T00:13:49;100799.84;;;11.56;60.63
7524;BME280;3803;51.666;7.630;2023-12-20T00:14:09;100769.91;;;11.44;60.70
7524;BME280;3803;51.666;7.630;2023-12-20T00:14:30;100782.28;;;11.50;60.57
7524;BME280;3803;51.666;7.630;2023-12-20T00:14:51;100792.00;;;11.56;60.58
7524;BME280;3803;51.666;7.630;2023-12-20T00:15:12;100792.06;;;11.59;60.59
7524;BME280;3803;51.666;7.630;2023-12-20T00:15:33;100792.84;;;11.56;60.88
7524;BME280;3803;51.666;7.630;2023-12-20T00:15:54;100792.84;;;11.56;60.55
7524;BME280;3803;51.666;7.630;2023-12-20T00:16:15;100781.22;;;11.43;60.52
7524;BME280;3803;51.666;7.630;2023-12-20T00:16:36;100784.78;;;11.45;60.58
7524;BME280;3803;51.666;7.630;2023-12-20T00:16:56;100775.19;;;11.46;60.73
7524;BME280;3803;51.666;7.630;2023-12-20T00:17:17;100787.34;;;11.44;60.96
7524;BME280;3803;51.666;7.630;2023-12-20T00:17:38;100770.66;;;11.38;60.54
7524;BME280;3803;51.666;7.630;2023-12-20T00:18:00;100762.81;;;11.38;60.63
7524;BME280;3803;51.666;7.630;2023-12-20T00:18:21;100776.94;;;11.45;60.56
7524;BME280;3803;51.666;7.630;2023-12-20T00:18:42;100774.38;;;11.48;60.57
7524;BME280;3803;51.666;7.630;2023-12-20T00:19:03;100784.84;;;11.48;60.53
7524;BME280;3803;51.666;7.630;2023-12-20T00:19:23;100768.84;;;11.36;60.57
7524;BME280;3803;51.666;7.630;2023-12-20T00:19:44;100770.66;;;11.37;60.68
7524;BME280;3803;51.666;7.630;2023-12-20T00:20:05;100776.84;;;11.41;60.53
7524;BME280;3803;51.666;7.630;2023-12-20T00:20:27;100788.25;;;11.46;60.56
7524;BME280;3803;51.666;7.630;2023-12-20T00:20:48;100778.53;;;11.40;60.58
7524;BME280;3803;51.666;7.630;2023-12-20T00:21:09;100774.13;;;11.37;60.62
7524;BME280;3803;51.666;7.630;2023-12-20T00:21:30;100780.31;;;11.41;60.56
7524;BME280;3803;51.666;7.630;2023-12-20T00:21:50;100778.53;;;11.40;60.70
7524;BME280;3803;51.666;7.630;2023-12-20T00:22:11;100786.34;;;11.38;60.62
7524;BME280;3803;51.666;7.630;2023-12-20T00:22:32;100772.97;;;11.26;60.65
7524;BME280;3803;51.666;7.630;2023-12-20T00:22:55;100780.09;;;11.32;60.96
7524;BME280;3803;51.666;7.630;2023-12-20T00:23:16;100790.75;;;11.41;60.86
7524;BME280;3803;51.666;7.630;2023-12-20T00:23:37;100786.22;;;11.34;60.85
7524;BME280;3803;51.666;7.630;2023-12-20T00:23:57;100788.09;;;11.38;60.52
7524;BME280;3803;51.666;7.630;2023-12-20T00:24:18;100788.09;;;11.38;60.64
7524;BME280;3803;51.666;7.630;2023-12-20T00:24:39;100788.09;;;11.38;60.63
7524;BME280;3803;51.666;7.630;2023-12-20T00:25:00;100795.97;;;11.41;60.46
7524;BME280;3803;51.666;7.630;2023-12-20T00:25:20;100799.44;;;11.40;60.53
7524;BME280;3803;51.666;7.630;2023-12-20T00:25:41;100789.47;;;11.23;60.61
7524;BME280;3803;51.666;7.630;2023-12-20T00:26:02;100789.50;;;11.25;60.63
7524;BME280;3803;51.666;7.630;2023-12-20T00:26:25;100788.66;;;11.26;60.74
7524;BME280;3803;51.666;7.630;2023-12-20T00:26:48;100808.09;;;11.37;60.69
7524;BME280;3803;51.666;7.630;2023-12-20T00:27:09;100792.19;;;11.28;60.77
7524;BME280;3803;51.666;7.630;2023-12-20T00:27:29;100806.44;;;11.41;60.67
7524;BME280;3803;51.666;7.630;2023-12-20T00:27:50;100790.47;;;11.30;60.67
7524;BME280;3803;51.666;7.630;2023-12-20T00:28:11;100807.22;;;11.37;60.76
7524;BME280;3803;51.666;7.630;2023-12-20T00:28:32;100789.56;;;11.28;60.61
7524;BME280;3803;51.666;7.630;2023-12-20T00:28:52;100787.84;;;11.29;60.56
7524;BME280;3803;51.666;7.630;2023-12-20T00:29:13;100807.22;;;11.37;60.55
7524;BME280;3803;51.666;7.630;2023-12-20T00:29:34;100807.97;;;11.33;60.76
7524;BME280;3803;51.666;7.630;2023-12-20T00:29:55;100793.88;;;11.26;60.52
7524;BME280;3803;51.666;7.630;2023-12-20T00:30:16;100791.22;;;11.24;60.49
7524;BME280;3803;51.666;7.630;2023-12-20T00:30:37;100815.88;;;11.36;60.30
7524;BME280;3803;51.666;7.630;2023-12-20T00:30:57;100810.53;;;11.30;60.70
7524;BME280;3803;51.666;7.630;2023-12-20T00:31:18;100810.53;;;11.30;60.73
7524;BME280;3803;51.666;7.630;2023-12-20T00:31:39;100808.75;;;11.29;60.29
7524;BME280;3803;51.666;7.630;2023-12-20T00:31:59;100805.03;;;11.20;60.42
7524;BME280;3803;51.666;7.630;2023-12-20T00:32:20;100805.13;;;11.23;60.40
7524;BME280;3803;51.666;7.630;2023-12-20T00:32:41;100800.53;;;11.13;60.31
7524;BME280;3803;51.666;7.630;2023-12-20T00:33:09;100803.94;;;11.12;60.80
7524;BME280;3803;51.666;7.630;2023-12-20T00:33:29;100806.66;;;11.15;60.87
7524;BME280;3803;51.666;7.630;2023-12-20T00:33:50;100812.13;;;11.24;60.62
7524;BME280;3803;51.666;7.630;2023-12-20T00:34:11;100804.22;;;11.21;60.70
7524;BME280;3803;51.666;7.630;2023-12-20T00:34:32;100804.22;;;11.23;60.85
7524;BME280;3803;51.666;7.630;2023-12-20T00:34:53;100798.03;;;11.19;60.51
7524;BME280;3803;51.666;7.630;2023-12-20T00:35:16;100807.81;;;11.27;60.64
7524;BME280;3803;51.666;7.630;2023-12-20T00:35:37;100803.38;;;11.22;60.68
7524;BME280;3803;51.666;7.630;2023-12-20T00:36:00;100804.09;;;11.17;60.76
7524;BME280;3803;51.666;7.630;2023-12-20T00:36:21;100808.50;;;11.19;60.66
7524;BME280;3803;51.666;7.630;2023-12-20T00:36:41;100799.75;;;11.17;60.93
7524;BME280;3803;51.666;7.630;2023-12-20T00:37:02;100780.44;;;11.12;60.60
7524;BME280;3803;51.666;7.630;2023-12-20T00:37:23;100790.09;;;11.15;60.62
7524;BME280;3803;51.666;7.630;2023-12-20T00:37:44;100806.03;;;11.26;60.83
7524;BME280;3803;51.666;7.630;2023-12-20T00:38:05;100811.22;;;11.24;60.67
7524;BME280;3803;51.666;7.630;2023-12-20T00:38:27;100804.22;;;11.23;60.65
7524;BME280;3803;51.666;7.630;2023-12-20T00:38:48;100796.97;;;11.11;60.70
7524;BME280;3803;51.666;7.630;2023-12-20T00:39:09;100813.72;;;11.19;60.54
7524;BME280;3803;51.666;7.630;2023-12-20T00:39:29;100801.59;;;11.21;60.82
7524;BME280;3803;51.666;7.630;2023-12-20T00:39:50;100803.13;;;11.13;60.84
7524;BME280;3803;51.666;7.630;2023-12-20T00:40:11;100800.53;;;11.13;60.60
7524;BME280;3803;51.666;7.630;2023-12-20T00:40:32;100810.41;;;11.27;60.72
7524;BME280;3803;51.666;7.630;2023-12-20T00:40:53;100797.97;;;11.16;60.71
7524;BME280;3803;51.666;7.630;2023-12-20T00:41:14;100790.03;;;11.12;60.57
7524;BME280;3803;51.666;7.630;2023-12-20T00:41:35;100790.03;;;11.12;60.48
7524;BME280;3803;51.666;7.630;2023-12-20T00:41:55;100793.56;;;11.14;60.45
7524;BME280;3803;51.666;7.630;2023-12-20T00:42:16;100801.56;;;11.20;60.45
7524;BME280;3803;51.666;7.630;2023-12-20T00:42:37;100791.72;;;11.09;60.58
7524;BME280;3803;51.666;7.630;2023-12-20T00:42:58;100802.19;;;11.11;60.48
7524;BME280;3803;51.666;7.630;2023-12-20T00:43:18;100798.72;;;11.10;60.73
7524;BME280;3803;51.666;7.630;2023-12-20T00:43:41;100801.34;;;11.12;60.60
7524;BME280;3803;51.666;7.630;2023-12-20T00:44:05;100797.81;;;11.10;60.60
7524;BME280;3803;51.666;7.630;2023-12-20T00:44:25;100805.75;;;11.15;60.51
7524;BME280;3803;51.666;7.630;2023-12-20T00:44:49;100808.44;;;11.16;60.79
7524;BME280;3803;51.666;7.630;2023-12-20T00:45:11;100817.34;;;11.24;60.73
7524;BME280;3803;51.666;7.630;2023-12-20T00:45:32;100794.50;;;11.17;60.35
7524;BME280;3803;51.666;7.630;2023-12-20T00:45:52;100809.31;;;11.17;60.66
7524;BME280;3803;51.666;7.630;2023-12-20T00:46:13;100816.44;;;11.22;60.58
7524;BME280;3803;51.666;7.630;2023-12-20T00:46:34;100818.09;;;11.20;60.53
7524;BME280;3803;51.666;7.630;2023-12-20T00:46:57;100820.84;;;11.25;60.35
7524;BME280;3803;51.666;7.630;2023-12-20T00:47:18;100811.16;;;11.21;60.60
7524;BME280;3803;51.666;7.630;2023-12-20T00:47:38;100814.50;;;11.15;60.66
7524;BME280;3803;51.666;7.630;2023-12-20T00:47:59;100808.47;;;11.18;60.70
7524;BME280;3803;51.666;7.630;2023-12-20T00:48:22;100823.41;;;11.23;60.49
7524;BME280;3803;51.666;7.630;2023-12-20T00:48:43;100809.41;;;11.20;60.63
7524;BME280;3803;51.666;7.630;2023-12-20T00:49:06;100821.72;;;11.26;60.54
7524;BME280;3803;51.666;7.630;2023-12-20T00:49:27;100827.84;;;11.28;60.41
7524;BME280;3803;51.666;7.630;2023-12-20T00:49:47;100811.84;;;11.14;60.56
7524;BME280;3803;51.666;7.630;2023-12-20T00:50:09;100796.03;;;11.09;60.54
7524;BME280;3803;51.666;7.630;2023-12-20T00:50:30;100812.00;;;11.20;60.52
7524;BME280;3803;51.666;7.630;2023-12-20T00:50:50;100821.66;;;11.22;60.58
7524;BME280;3803;51.666;7.630;2023-12-20T00:51:11;100800.53;;;11.15;60.66
7524;BME280;3803;51.666;7.630;2023-12-20T00:51:32;100801.56;;;11.20;60.62
7524;BME280;3803;51.666;7.630;2023-12-20T00:51:53;100802.28;;;11.14;60.62
7524;BME280;3803;51.666;7.630;2023-12-20T00:52:14;100814.63;;;11.20;60.63
7524;BME280;3803;51.666;7.630;2023-12-20T00:52:35;100812.91;;;11.22;60.85
7524;BME280;3803;51.666;7.630;2023-12-20T00:52:55;100798.94;;;11.20;60.67
7524;BME280;3803;51.666;7.630;2023-12-20T00:53:19;100811.22;;;11.24;60.65
7524;BME280;3803;51.666;7.630;2023-12-20T00:53:40;100801.66;;;11.24;60.77
7524;BME280;3803;51.666;7.630;2023-12-20T00:54:01;100800.81;;;11.26;60.80
7524;BME280;3803;51.666;7.630;2023-12-20T00:54:21;100803.44;;;11.26;60.64
7524;BME280;3803;51.666;7.630;2023-12-20T00:54:42;100793.72;;;11.20;60.72
7524;BME280;3803;51.666;7.630;2023-12-20T00:55:07;100803.44;;;11.26;60.50
7524;BME280;3803;51.666;7.630;2023-12-20T00:55:28;100797.25;;;11.22;60.67
7524;BME280;3803;51.666;7.630;2023-12-20T00:55:51;100807.88;;;11.28;60.73
7524;BME280;3803;51.666;7.630;2023-12-20T00:56:11;100799.00;;;11.23;60.75
7524;BME280;3803;51.666;7.630;2023-12-20T00:56:32;100821.09;;;11.36;60.57
7524;BME280;3803;51.666;7.630;2023-12-20T00:56:53;100816.72;;;11.33;60.56
7524;BME280;3803;51.666;7.630;2023-12-20T00:57:14;100816.63;;;11.30;60.48
7524;BME280;3803;51.666;7.630;2023-12-20T00:57:35;100817.56;;;11.34;61.09
7524;BME280;3803;51.666;7.630;2023-12-20T00:57:59;100805.25;;;11.28;60.58
7524;BME280;3803;51.666;7.630;2023-12-20T00:58:20;100826.44;;;11.39;60.74
7524;BME280;3803;51.666;7.630;2023-12-20T00:58:41;100814.13;;;11.35;60.81
7524;BME280;3803;51.666;7.630;2023-12-20T00:59:05;100815.81;;;11.33;60.46
7524;BME280;3803;51.666;7.630;2023-12-20T00:59:26;100814.97;;;11.34;60.87
7524;BME280;3803;51.666;7.630;2023-12-20T00:59:46;100808.97;;;11.38;60.96
7524;BME280;3803;51.666;7.630;2023-12-20T01:00:07;100801.09;;;11.36;60.68
7524;BME280;3803;51.666;7.630;2023-12-20T01:00:31;100813.38;;;11.39;60.83
7524;BME280;3803;51.666;7.630;2023-12-20T01:00:52;100810.81;;;11.42;60.45
7524;BME280;3803;51.666;7.630;2023-12-20T01:01:14;100830.22;;;11.52;60.73
7524;BME280;3803;51.666;7.630;2023-12-20T01:01:35;100799.50;;;11.43;60.56
7524;BME280;3803;51.666;7.630;2023-12-20T01:01:56;100813.59;;;11.48;60.80
7524;BME280;3803;51.666;7.630;2023-12-20T01:02:17;100820.47;;;11.45;60.88
7524;BME280;3803;51.666;7.630;2023-12-20T01:02:38;100822.22;;;11.46;60.77
7524;BME280;3803;51.666;7.630;2023-12-20T01:03:01;100828.50;;;11.52;60.62
7524;BME280;3803;51.666;7.630;2023-12-20T01:03:22;100809.22;;;11.47;60.59
7524;BME280;3803;51.666;7.630;2023-12-20T01:03:43;100799.56;;;11.45;60.67
7524;BME280;3803;51.666;7.630;2023-12-20T01:04:04;100817.00;;;11.46;60.70
7524;BME280;3803;51.666;7.630;2023-12-20T01:04:24;100828.50;;;11.52;60.79
7524;BME280;3803;51.666;7.630;2023-12-20T01:04:45;100817.16;;;11.52;60.83
7524;BME280;3803;51.666;7.630;2023-12-20T01:05:07;100827.72;;;11.57;60.84
7524;BME280;3803;51.666;7.630;2023-12-20T01:05:29;100835.72;;;11.63;60.60
7524;BME280;3803;51.666;7.630;2023-12-20T01:05:50;100822.44;;;11.55;60.74
7524;BME280;3803;51.666;7.630;2023-12-20T01:06:13;100827.78;;;11.60;60.53
7524;BME280;3803;51.666;7.630;2023-12-20T01:06:34;100822.56;;;11.60;60.28
7524;BME280;3803;51.666;7.630;2023-12-20T01:06:55;100814.63;;;11.55;60.29
7524;BME280;3803;51.666;7.630;2023-12-20T01:07:16;100816.34;;;11.55;60.23
7524;BME280;3803;51.666;7.630;2023-12-20T01:07:37;100834.88;;;11.64;60.27
7524;BME280;3803;51.666;7.630;2023-12-20T01:07:58;100825.13;;;11.57;60.17
7524;BME280;3803;51.666;7.630;2023-12-20T01:08:19;100819.81;;;11.54;60.49
7524;BME280;3803;51.666;7.630;2023-12-20T01:08:40;100813.69;;;11.53;60.25
7524;BME280;3803;51.666;7.630;2023-12-20T01:09:01;100827.88;;;11.63;60.51
7524;BME280;3803;51.666;7.630;2023-12-20T01:09:21;100817.22;;;11.55;60.30
7524;BME280;3803;51.666;7.630;2023-12-20T01:09:49;100817.06;;;11.47;60.67
7524;BME280;3803;51.666;7.630;2023-12-20T01:10:09;100811.56;;;11.36;60.84
7524;BME280;3803;51.666;7.630;2023-12-20T01:10:33;100833.66;;;11.49;60.60
7524;BME280;3803;51.666;7.630;2023-12-20T01:10:54;100821.38;;;11.47;60.64
7524;BME280;3803;51.666;7.630;2023-12-20T01:11:14;100817.81;;;11.43;60.61
7524;BME280;3803;51.666;7.630;2023-12-20T01:11:35;100833.81;;;11.56;60.36
7524;BME280;3803;51.666;7.630;2023-12-20T01:11:56;100818.69;;;11.44;60.75
7524;BME280;3803;51.666;7.630;2023-12-20T01:12:19;100831.81;;;11.45;60.73
7524;BME280;3803;51.666;7.630;2023-12-20T01:12:41;100821.25;;;11.42;60.85
7524;BME280;3803;51.666;7.630;2023-12-20T01:13:05;100827.44;;;11.46;60.76
7524;BME280;3803;51.666;7.630;2023-12-20T01:13:28;100831.03;;;11.49;60.83
7524;BME280;3803;51.666;7.630;2023-12-20T01:13:52;100822.16;;;11.43;60.82
7524;BME280;3803;51.666;7.630;2023-12-20T01:14:15;100837.97;;;11.47;61.00
7524;BME280;3803;51.666;7.630;2023-12-20T01:14:36;100821.25;;;11.41;61.14
7524;BME280;3803;51.666;7.630;2023-12-20T01:14:57;100817.56;;;11.34;61.06
7524;BME280;3803;51.666;7.630;2023-12-20T01:15:19;100843.22;;;11.49;61.16
7524;BME280;3803;51.666;7.630;2023-12-20T01:15:39;100849.38;;;11.51;61.23
7524;BME280;3803;51.666;7.630;2023-12-20T01:16:01;100824.66;;;11.38;61.33
7524;BME280;3803;51.666;7.630;2023-12-20T01:16:21;100829.22;;;11.47;61.13
7524;BME280;3803;51.666;7.630;2023-12-20T01:16:42;100818.75;;;11.47;60.97
7524;BME280;3803;51.666;7.630;2023-12-20T01:17:06;100850.56;;;11.64;61.04
7524;BME280;3803;51.666;7.630;2023-12-20T01:17:27;100835.63;;;11.60;60.94
7524;BME280;3803;51.666;7.630;2023-12-20T01:17:48;100833.88;;;11.59;60.93
7524;BME280;3803;51.666;7.630;2023-12-20T01:18:12;100838.28;;;11.61;60.99
7524;BME280;3803;51.666;7.630;2023-12-20T01:18:33;100831.16;;;11.54;61.21
7524;BME280;3803;51.666;7.630;2023-12-20T01:18:56;100839.94;;;11.58;60.71
7524;BME280;3803;51.666;7.630;2023-12-20T01:19:22;100826.50;;;11.42;61.12
7524;BME280;3803;51.666;7.630;2023-12-20T01:19:47;100834.44;;;11.45;60.86
7524;BME280;3803;51.666;7.630;2023-12-20T01:21:30;100818.63;;;11.41;60.54
7524;BME280;3803;51.666;7.630;2023-12-20T01:21:53;100842.34;;;11.48;60.54
7524;BME280;3803;51.666;7.630;2023-12-20T01:22:17;100818.41;;;11.33;60.77
7524;BME280;3803;51.666;7.630;2023-12-20T01:22:37;100820.00;;;11.26;60.82
7524;BME280;3803;51.666;7.630;2023-12-20T01:22:59;100832.28;;;11.30;60.69
7524;BME280;3803;51.666;7.630;2023-12-20T01:23:20;100811.31;;;11.27;60.83
7524;BME280;3803;51.666;7.630;2023-12-20T01:23:41;100829.69;;;11.30;60.75
7524;BME280;3803;51.666;7.630;2023-12-20T01:24:03;100827.78;;;11.24;60.98
7524;BME280;3803;51.666;7.630;2023-12-20T01:24:26;100819.84;;;11.20;60.90
7524;BME280;3803;51.666;7.630;2023-12-20T01:25:48;100834.72;;;11.22;61.19
7524;BME280;3803;51.666;7.630;2023-12-20T01:26:12;100832.84;;;11.18;60.93
7524;BME280;3803;51.666;7.630;2023-12-20T01:26:33;100833.88;;;11.23;60.92
7524;BME280;3803;51.666;7.630;2023-12-20T01:26:54;100832.84;;;11.18;60.68
7524;BME280;3803;51.666;7.630;2023-12-20T01:27:17;100815.41;;;11.17;60.89
7524;BME280;3803;51.666;7.630;2023-12-20T01:27:38;100822.34;;;11.15;60.79
7524;BME280;3803;51.666;7.630;2023-12-20T01:27:59;100824.03;;;11.15;60.93
7524;BME280;3803;51.666;7.630;2023-12-20T01:28:19;100832.06;;;11.21;60.93
7524;BME280;3803;51.666;7.630;2023-12-20T01:28:40;100833.81;;;11.22;61.04
7524;BME280;3803;51.666;7.630;2023-12-20T01:29:01;100819.72;;;11.15;60.73
7524;BME280;3803;51.666;7.630;2023-12-20T01:29:22;100830.22;;;11.17;60.94
7524;BME280;3803;51.666;7.630;2023-12-20T01:29:43;100825.78;;;11.14;60.88
7524;BME280;3803;51.666;7.630;2023-12-20T01:30:04;100819.56;;;11.09;61.03
7524;BME280;3803;51.666;7.630;2023-12-20T01:32:29;100823.75;;;11.04;60.75
7524;BME280;3803;51.666;7.630;2023-12-20T01:32:50;100819.38;;;11.01;60.80
7524;BME280;3803;51.666;7.630;2023-12-20T01:33:11;100842.13;;;11.07;60.79
7524;BME280;3803;51.666;7.630;2023-12-20T01:33:32;100842.03;;;11.04;60.92
7524;BME280;3803;51.666;7.630;2023-12-20T01:33:55;100823.47;;;10.93;60.94
7524;BME280;3803;51.666;7.630;2023-12-20T01:34:17;100835.91;;;11.02;60.94
7524;BME280;3803;51.666;7.630;2023-12-20T01:34:40;100836.78;;;11.02;60.96
7524;BME280;3803;51.666;7.630;2023-12-20T01:35:03;100818.25;;;10.93;60.67
7524;BME280;3803;51.666;7.630;2023-12-20T01:35:27;100849.88;;;11.04;60.79
7524;BME280;3803;51.666;7.630;2023-12-20T01:35:53;100832.19;;;10.93;60.71
7524;BME280;3803;51.666;7.630;2023-12-20T01:36:14;100848.09;;;11.03;60.64
7524;BME280;3803;51.666;7.630;2023-12-20T01:36:35;100834.81;;;10.93;60.85
7524;BME280;3803;51.666;7.630;2023-12-20T01:36:56;100848.91;;;11.00;60.62
7524;BME280;3803;51.666;7.630;2023-12-20T01:37:17;100847.19;;;11.01;60.66
7524;BME280;3803;51.666;7.630;2023-12-20T01:37:41;100829.50;;;10.90;60.73
7524;BME280;3803;51.666;7.630;2023-12-20T01:38:02;100834.38;;;10.78;60.75
7524;BME280;3803;51.666;7.630;2023-12-20T01:38:27;100823.88;;;10.75;60.99
7524;BME280;3803;51.666;7.630;2023-12-20T01:38:48;100838.03;;;10.85;61.14
7524;BME280;3803;51.666;7.630;2023-12-20T01:39:10;100836.50;;;10.93;61.31
7524;BME280;3803;51.666;7.630;2023-12-20T01:39:30;100825.09;;;10.88;60.83
7524;BME280;3803;51.666;7.630;2023-12-20T01:39:51;100831.16;;;10.87;60.92
7524;BME280;3803;51.666;7.630;2023-12-20T01:40:15;100820.53;;;10.80;61.43
7524;BME280;3803;51.666;7.630;2023-12-20T01:40:38;100849.69;;;10.96;61.10
7524;BME280;3803;51.666;7.630;2023-12-20T01:41:01;100832.91;;;10.88;61.08
7524;BME280;3803;51.666;7.630;2023-12-20T01:41:24;100853.25;;;11.00;60.78
7524;BME280;3803;51.666;7.630;2023-12-20T01:41:47;100837.34;;;10.90;61.08
7524;BME280;3803;51.666;7.630;2023-12-20T01:42:14;100822.34;;;10.83;60.97
7524;BME280;3803;51.666;7.630;2023-12-20T01:42:35;100831.03;;;10.82;61.19
7524;BME280;3803;51.666;7.630;2023-12-20T01:43:07;100844.44;;;10.96;61.03
7524;BME280;3803;51.666;7.630;2023-12-20T01:43:29;100821.50;;;10.84;60.68
7524;BME280;3803;51.666;7.630;2023-12-20T01:43:52;100827.63;;;10.86;60.82
7524;BME280;3803;51.666;7.630;2023-12-20T01:44:18;100818.84;;;10.82;60.91
7524;BME280;3803;51.666;7.630;2023-12-20T01:44:39;100831.94;;;10.84;60.93
7524;BME280;3803;51.666;7.630;2023-12-20T01:44:59;100824.84;;;10.80;60.82
7524;BME280;3803;51.666;7.630;2023-12-20T01:45:20;100817.88;;;10.79;60.69
7524;BME280;3803;51.666;7.630;2023-12-20T01:45:41;100824.78;;;10.77;60.65
7524;BME280;3803;51.666;7.630;2023-12-20T01:46:02;100831.75;;;10.78;60.76
7524;BME280;3803;51.666;7.630;2023-12-20T01:46:24;100837.66;;;10.71;60.98
7524;BME280;3803;51.666;7.630;2023-12-20T01:46:48;100825.38;;;10.68;61.02
7524;BME280;3803;51.666;7.630;2023-12-20T01:47:09;100846.44;;;10.74;60.43
7524;BME280;3803;51.666;7.630;2023-12-20T01:47:30;100840.38;;;10.74;61.01
7524;BME280;3803;51.666;7.630;2023-12-20T01:48:02;100839.25;;;10.65;61.00
7524;BME280;3803;51.666;7.630;2023-12-20T01:48:24;100856.06;;;10.75;61.13
7524;BME280;3803;51.666;7.630;2023-12-20T01:48:51;100824.34;;;10.61;61.13
7524;BME280;3803;51.666;7.630;2023-12-20T01:49:17;100825.19;;;10.60;61.01
7524;BME280;3803;51.666;7.630;2023-12-20T01:49:38;100827.03;;;10.64;60.78
7524;BME280;3803;51.666;7.630;2023-12-20T01:49:59;100834.19;;;10.70;60.61
7524;BME280;3803;51.666;7.630;2023-12-20T01:50:21;100837.53;;;10.66;60.52
7524;BME280;3803;51.666;7.630;2023-12-20T01:50:43;100835.84;;;10.68;60.57
7524;BME280;3803;51.666;7.630;2023-12-20T01:51:05;100845.22;;;10.61;60.53
7524;BME280;3803;51.666;7.630;2023-12-20T01:51:26;100834.53;;;10.52;60.75
7524;BME280;3803;51.666;7.630;2023-12-20T01:51:48;100846.00;;;10.59;60.71
7524;BME280;3803;51.666;7.630;2023-12-20T01:52:14;100833.75;;;10.56;60.60
7524;BME280;3803;51.666;7.630;2023-12-20T01:52:36;100825.59;;;10.44;60.90
7524;BME280;3803;51.666;7.630;2023-12-20T01:53:00;100846.81;;;10.56;60.75
7524;BME280;3803;51.666;7.630;2023-12-20T01:53:21;100823.06;;;10.47;60.89
7524;BME280;3803;51.666;7.630;2023-12-20T01:53:44;100826.38;;;10.41;60.76
7524;BME280;3803;51.666;7.630;2023-12-20T01:54:06;100833.44;;;10.45;60.74
7524;BME280;3803;51.666;7.630;2023-12-20T01:54:30;100832.50;;;10.41;60.74
7524;BME280;3803;51.666;7.630;2023-12-20T01:54:51;100847.56;;;10.52;61.02
7524;BME280;3803;51.666;7.630;2023-12-20T01:55:12;100843.09;;;10.48;60.75
7524;BME280;3803;51.666;7.630;2023-12-20T01:55:46;100848.50;;;10.54;60.38
7524;BME280;3803;51.666;7.630;2023-12-20T01:56:09;100838.66;;;10.45;60.70
7524;BME280;3803;51.666;7.630;2023-12-20T01:56:33;100859.69;;;10.50;60.64
7524;BME280;3803;51.666;7.630;2023-12-20T01:56:54;100827.16;;;10.38;60.56
7524;BME280;3803;51.666;7.630;2023-12-20T01:57:16;100843.84;;;10.44;60.54
7524;BME280;3803;51.666;7.630;2023-12-20T01:57:37;100826.19;;;10.35;60.79
7524;BME280;3803;51.666;7.630;2023-12-20T01:58:00;100830.63;;;10.37;60.61
7524;BME280;3803;51.666;7.630;2023-12-20T01:58:22;100827.09;;;10.35;60.69
7524;BME280;3803;51.666;7.630;2023-12-20T01:58:49;100850.06;;;10.49;60.46
7524;BME280;3803;51.666;7.630;2023-12-20T01:59:14;100836.69;;;10.36;60.68
7524;BME280;3803;51.666;7.630;2023-12-20T01:59:35;100849.00;;;10.42;60.65
7524;BME280;3803;51.666;7.630;2023-12-20T01:59:56;100848.94;;;10.40;60.68
7524;BME280;3803;51.666;7.630;2023-12-20T02:00:17;100839.16;;;10.33;60.50
7524;BME280;3803;51.666;7.630;2023-12-20T02:00:39;100851.69;;;10.44;60.71